createdAt,value
2022-11-21T00:01:17.305Z,53.38
2022-11-21T00:03:47.263Z,45.50
2022-11-21T00:06:15.322Z,45.65
2022-11-21T00:08:43.280Z,50.28
2022-11-21T00:11:11.247Z,50.00
2022-11-21T00:13:40.315Z,50.35
2022-11-21T00:16:09.995Z,54.67
2022-11-21T00:18:38.007Z,52.67
2022-11-21T00:21:08.776Z,57.35
2022-11-21T00:23:36.952Z,62.97
2022-11-21T00:26:06.335Z,63.53
2022-11-21T00:28:34.569Z,60.50
2022-11-21T00:31:02.502Z,62.42
2022-11-21T00:33:30.438Z,66.80
2022-11-21T00:35:58.516Z,54.67
2022-11-21T00:38:28.666Z,57.33
2022-11-21T00:40:56.590Z,54.60
2022-11-21T00:43:24.609Z,56.10
2022-11-21T00:45:52.500Z,53.83
2022-11-21T00:48:20.478Z,58.85
2022-11-21T00:50:50.082Z,58.95
2022-11-21T00:53:18.017Z,61.15
2022-11-21T00:55:47.315Z,53.33
2022-11-21T00:58:15.161Z,60.40
2022-11-21T01:00:43.139Z,50.45
2022-11-21T01:03:11.111Z,49.28
2022-11-21T01:05:39.059Z,47.20
2022-11-21T01:08:06.952Z,44.45
2022-11-21T01:10:35.945Z,44.63
2022-11-21T01:13:05.347Z,51.30
2022-11-21T01:15:34.584Z,55.58
2022-11-21T01:18:02.584Z,50.03
2022-11-21T01:20:30.512Z,54.17
2022-11-21T01:22:58.411Z,55.10
2022-11-21T01:25:26.530Z,48.45
2022-11-21T01:27:54.386Z,54.40
2022-11-21T01:30:23.719Z,49.30
2022-11-21T01:32:52.423Z,51.25
2022-11-21T01:35:20.593Z,57.22
2022-11-21T01:37:49.304Z,45.97
2022-11-21T01:40:18.060Z,50.60
2022-11-21T01:42:54.374Z,45.97
2022-11-21T01:45:56.012Z,47.50
2022-11-21T01:48:27.769Z,51.85
2022-11-21T01:50:57.603Z,59.60
2022-11-21T01:53:26.071Z,46.88
2022-11-21T01:55:54.748Z,47.63
2022-11-21T01:58:23.929Z,42.55
2022-11-21T02:00:52.025Z,49.70
2022-11-21T02:03:25.935Z,47.40
2022-11-21T02:05:54.987Z,45.53
2022-11-21T02:08:26.197Z,41.67
2022-11-21T02:11:03.986Z,54.30
2022-11-21T02:13:32.133Z,47.67
2022-11-21T02:16:00.047Z,45.03
2022-11-21T02:18:29.270Z,45.63
2022-11-21T02:21:02.921Z,43.38
2022-11-21T02:23:38.627Z,42.90
2022-11-21T02:26:07.877Z,45.67
2022-11-21T02:28:35.832Z,46.92
2022-11-21T02:31:03.755Z,43.40
2022-11-21T02:33:31.796Z,43.10
2022-11-21T02:36:00.644Z,44.67
2022-11-21T02:38:32.841Z,42.00
2022-11-21T02:41:06.625Z,40.97
2022-11-21T02:43:40.932Z,48.58
2022-11-21T02:46:08.803Z,43.67
2022-11-21T02:48:38.290Z,38.47
2022-11-21T02:51:06.372Z,41.35
2022-11-21T02:53:34.499Z,44.80
2022-11-21T02:56:02.410Z,39.10
2022-11-21T02:58:30.551Z,42.38
2022-11-21T03:00:59.814Z,43.35
2022-11-21T03:03:27.705Z,46.15
2022-11-21T03:05:56.294Z,45.97
2022-11-21T03:08:24.244Z,44.95
2022-11-21T03:10:52.094Z,40.88
2022-11-21T03:13:19.931Z,42.83
2022-11-21T03:15:47.841Z,46.13
2022-11-21T03:18:17.075Z,44.78
2022-11-21T03:20:44.922Z,41.50
2022-11-21T03:23:12.821Z,42.60
2022-11-21T03:25:40.726Z,46.50
2022-11-21T03:28:08.623Z,46.10
2022-11-21T03:30:36.805Z,46.60
2022-11-21T03:33:04.750Z,47.30
2022-11-21T03:35:33.967Z,44.03
2022-11-21T03:38:01.832Z,50.40
2022-11-21T03:40:29.778Z,48.47
2022-11-21T03:42:57.654Z,51.28
2022-11-21T03:45:25.535Z,52.42
2022-11-21T03:47:53.405Z,49.53
2022-11-21T03:50:21.666Z,53.45
2022-11-21T03:52:50.903Z,59.33
2022-11-21T03:55:18.820Z,60.95
2022-11-21T03:57:46.768Z,55.72
2022-11-21T04:00:16.203Z,54.83
2022-11-21T04:02:44.041Z,55.67
2022-11-21T04:05:11.978Z,53.10
2022-11-21T04:07:39.918Z,58.90
2022-11-21T04:10:10.061Z,46.28
2022-11-21T04:12:37.951Z,50.38
2022-11-21T04:15:12.151Z,54.95
2022-11-21T04:17:41.588Z,55.28
2022-11-21T04:20:10.567Z,50.33
2022-11-21T04:22:38.417Z,47.95
2022-11-21T04:25:07.319Z,49.45
2022-11-21T04:27:36.501Z,57.20
2022-11-21T04:30:04.884Z,47.70
2022-11-21T04:32:33.176Z,50.83
2022-11-21T04:35:01.078Z,55.08
2022-11-21T04:37:29.156Z,52.40
2022-11-21T04:39:57.095Z,60.65
2022-11-21T04:42:25.274Z,50.88
2022-11-21T04:44:54.631Z,56.72
2022-11-21T04:47:22.490Z,55.40
2022-11-21T04:49:50.382Z,48.25
2022-11-21T04:52:18.234Z,54.72
2022-11-21T04:54:46.168Z,59.03
2022-11-21T04:57:14.226Z,52.40
2022-11-21T04:59:42.083Z,59.65
2022-11-21T05:02:11.667Z,62.38
2022-11-21T05:04:39.703Z,56.33
2022-11-21T05:07:07.676Z,74.80
2022-11-21T05:09:35.823Z,73.97
2022-11-21T05:12:21.128Z,70.03
2022-11-21T05:14:49.041Z,58.40
2022-11-21T05:17:18.244Z,61.95
2022-11-21T05:19:46.100Z,59.28
2022-11-21T05:22:14.036Z,59.83
2022-11-21T05:24:41.931Z,60.25
2022-11-21T05:27:09.777Z,62.28
2022-11-21T05:29:37.677Z,61.80
2022-11-21T05:32:06.110Z,61.55
2022-11-21T05:34:35.375Z,59.38
2022-11-21T05:37:03.277Z,70.43
2022-11-21T05:39:31.447Z,69.70
2022-11-21T05:42:02.945Z,67.10
2022-11-21T05:44:30.826Z,68.43
2022-11-21T05:46:58.825Z,65.63
2022-11-21T05:49:26.786Z,68.43
2022-11-21T05:51:55.977Z,70.60
2022-11-21T05:54:23.909Z,74.30
2022-11-21T05:56:51.824Z,76.15
2022-11-21T05:59:19.756Z,77.53
2022-11-21T06:02:05.359Z,77.75
2022-11-21T06:04:33.359Z,71.00
2022-11-21T06:07:02.665Z,70.22
2022-11-21T06:09:30.600Z,72.10
2022-11-21T06:11:58.540Z,67.45
2022-11-21T06:14:26.682Z,71.45
2022-11-21T06:16:54.837Z,69.57
2022-11-21T06:19:22.745Z,72.20
2022-11-21T06:21:50.644Z,69.07
2022-11-21T06:24:22.272Z,73.50
2022-11-21T06:26:50.388Z,68.00
2022-11-21T06:29:18.353Z,87.03
2022-11-21T06:31:46.492Z,67.63
2022-11-21T06:34:14.776Z,66.82
2022-11-21T06:36:44.727Z,70.63
2022-11-21T06:39:12.574Z,72.72
2022-11-21T06:41:41.931Z,65.88
2022-11-21T06:44:09.909Z,65.75
2022-11-21T06:46:37.784Z,72.80
2022-11-21T06:49:05.855Z,71.80
2022-11-21T06:51:33.875Z,76.38
2022-11-21T06:54:01.730Z,76.72
2022-11-21T06:56:31.936Z,69.10
2022-11-21T06:59:01.281Z,73.40
2022-11-21T07:01:29.456Z,66.43
2022-11-21T07:03:57.656Z,67.15
2022-11-21T07:06:25.875Z,58.60
2022-11-21T07:09:17.473Z,61.85
2022-11-21T07:11:42.123Z,63.50
2022-11-21T07:14:10.628Z,64.78
2022-11-21T07:16:38.769Z,65.55
2022-11-21T07:19:06.697Z,68.20
2022-11-21T07:21:34.577Z,65.55
2022-11-21T07:24:02.442Z,69.75
2022-11-21T07:26:30.419Z,61.30
2022-11-21T07:28:59.343Z,67.72
2022-11-21T07:31:28.633Z,68.47
2022-11-21T07:33:56.582Z,65.95
2022-11-21T07:36:24.410Z,53.83
2022-11-21T07:38:52.347Z,57.53
2022-11-21T07:41:20.686Z,54.33
2022-11-21T07:43:48.586Z,54.85
2022-11-21T07:46:16.551Z,49.35
2022-11-21T07:48:45.806Z,54.15
2022-11-21T07:51:13.789Z,52.20
2022-11-21T07:53:41.682Z,52.88
2022-11-21T07:56:10.425Z,52.45
2022-11-21T07:58:38.675Z,51.95
2022-11-21T08:01:07.694Z,46.85
2022-11-21T08:03:36.087Z,48.30
2022-11-21T08:06:05.959Z,48.15
2022-11-21T08:08:33.950Z,47.60
2022-11-21T08:11:06.448Z,48.78
2022-11-21T08:13:34.477Z,50.25
2022-11-21T08:16:04.793Z,47.60
2022-11-21T08:18:33.019Z,46.67
2022-11-21T08:21:03.136Z,39.78
2022-11-21T08:23:33.262Z,42.08
2022-11-21T08:26:01.161Z,45.08
2022-11-21T08:28:30.213Z,42.63
2022-11-21T08:30:58.087Z,45.08
2022-11-21T08:33:25.987Z,42.08
2022-11-21T08:35:53.998Z,45.13
2022-11-21T08:38:21.993Z,47.78
2022-11-21T08:41:17.289Z,44.78
2022-11-21T08:43:45.928Z,47.67
2022-11-21T08:46:13.841Z,51.92
2022-11-21T08:48:41.670Z,44.50
2022-11-21T08:51:09.593Z,44.30
2022-11-21T08:53:37.590Z,50.58
2022-11-21T08:56:07.099Z,49.67
2022-11-21T08:58:35.073Z,52.28
2022-11-21T09:01:03.009Z,61.92
2022-11-21T09:03:31.651Z,59.22
2022-11-21T09:06:00.196Z,55.20
2022-11-21T09:08:28.484Z,55.25
2022-11-21T09:10:56.458Z,57.03
2022-11-21T09:13:25.859Z,51.35
2022-11-21T09:16:11.302Z,52.10
2022-11-21T09:18:40.069Z,57.67
2022-11-21T09:21:07.979Z,57.85
2022-11-21T09:23:35.906Z,53.42
2022-11-21T09:26:03.795Z,46.65
2022-11-21T09:28:32.997Z,50.53
2022-11-21T09:31:03.497Z,55.35
2022-11-21T09:33:31.775Z,67.05
2022-11-21T09:35:59.747Z,54.97
2022-11-21T09:38:29.865Z,55.00
2022-11-21T09:41:27.621Z,54.92
2022-11-21T09:44:05.668Z,43.97
2022-11-21T09:46:40.702Z,46.97
2022-11-21T09:49:13.903Z,47.17
2022-11-21T09:51:44.481Z,43.17
2022-11-21T09:54:19.646Z,45.90
2022-11-21T09:56:48.900Z,40.08
2022-11-21T09:59:30.619Z,39.83
2022-11-21T10:01:58.761Z,44.60
2022-11-21T10:04:28.542Z,42.05
2022-11-21T10:07:04.067Z,40.75
2022-11-21T10:09:45.443Z,43.80
2022-11-21T10:12:40.221Z,47.20
2022-11-21T10:15:33.846Z,42.33
2022-11-21T10:18:18.228Z,57.90
2022-11-21T10:23:44.127Z,55.83
2022-11-21T10:26:18.254Z,62.70
2022-11-21T10:28:53.222Z,58.25
2022-11-21T10:31:23.474Z,58.05
2022-11-21T10:33:52.779Z,51.50
2022-11-21T10:36:27.934Z,54.50
2022-11-21T10:39:01.654Z,61.53
2022-11-21T10:41:41.877Z,63.65
2022-11-21T10:44:35.816Z,60.17
2022-11-21T10:47:15.330Z,62.00
2022-11-21T10:49:44.639Z,59.60
2022-11-21T10:52:16.562Z,55.85
2022-11-21T10:55:12.094Z,51.55
2022-11-21T10:57:47.109Z,58.05
2022-11-21T11:00:20.098Z,57.20
2022-11-21T11:03:04.945Z,59.60
2022-11-21T11:05:34.800Z,68.18
2022-11-21T11:08:06.409Z,59.38
2022-11-21T11:10:36.257Z,60.13
2022-11-21T11:13:47.272Z,62.40
2022-11-21T11:16:18.878Z,55.92
2022-11-21T11:18:56.687Z,64.55
2022-11-21T11:21:26.391Z,68.40
2022-11-21T11:23:55.739Z,63.88
2022-11-21T11:26:27.529Z,61.30
2022-11-21T11:28:59.697Z,68.53
2022-11-21T11:31:27.617Z,59.60
2022-11-21T11:33:57.172Z,64.20
2022-11-21T11:36:35.658Z,60.17
2022-11-21T11:39:11.817Z,68.35
2022-11-21T11:42:42.099Z,56.42
2022-11-21T11:45:34.769Z,64.72
2022-11-21T11:48:05.815Z,58.92
2022-11-21T11:50:42.019Z,66.25
2022-11-21T11:53:16.700Z,61.03
2022-11-21T11:55:48.387Z,66.25
2022-11-21T11:58:22.823Z,61.35
2022-11-21T12:00:59.004Z,68.05
2022-11-21T12:03:35.468Z,60.40
2022-11-21T12:06:12.379Z,55.08
2022-11-21T12:08:47.559Z,64.90
2022-11-21T12:11:41.388Z,56.00
2022-11-21T12:14:39.363Z,65.63
2022-11-21T12:17:10.263Z,56.58
2022-11-21T12:19:40.563Z,53.88
2022-11-21T12:22:12.635Z,60.63
2022-11-21T12:24:43.127Z,60.00
2022-11-21T12:27:25.343Z,53.25
2022-11-21T12:30:18.862Z,50.88
2022-11-21T12:32:57.279Z,50.40
2022-11-21T12:35:43.780Z,49.63
2022-11-21T12:38:22.602Z,46.10
2022-11-21T12:41:31.196Z,47.35
2022-11-21T12:44:10.549Z,48.42
2022-11-21T12:46:49.750Z,45.85
2022-11-21T12:49:49.116Z,66.72
2022-11-21T12:52:49.949Z,83.93
2022-11-21T12:55:35.578Z,36.05
2022-11-21T12:58:24.410Z,35.38
2022-11-21T13:01:04.414Z,35.25
2022-11-21T13:03:48.489Z,38.28
2022-11-21T13:06:20.463Z,35.05
2022-11-21T13:08:51.647Z,32.65
2022-11-21T13:11:48.378Z,32.22
2022-11-21T13:14:23.037Z,26.05
2022-11-21T13:17:03.687Z,23.88
2022-11-21T13:19:38.971Z,26.48
2022-11-21T13:22:06.925Z,26.02
2022-11-21T13:24:57.009Z,21.10
2022-11-21T13:27:37.840Z,29.52
2022-11-21T13:30:24.720Z,22.75
2022-11-21T13:32:54.563Z,26.50
2022-11-21T13:36:04.448Z,30.08
2022-11-21T13:38:33.080Z,27.95
2022-11-21T13:41:18.595Z,26.17
2022-11-21T13:43:48.195Z,24.90
2022-11-21T13:46:59.400Z,28.70
2022-11-21T13:49:34.008Z,27.10
2022-11-21T13:52:08.602Z,30.45
2022-11-21T13:55:04.560Z,20.65
2022-11-21T13:57:59.450Z,24.80
2022-11-21T14:00:43.528Z,33.72
2022-11-21T14:03:37.242Z,22.67
2022-11-21T14:06:29.676Z,25.52
2022-11-21T14:09:26.845Z,26.10
2022-11-21T14:11:59.410Z,25.35
2022-11-21T14:14:35.495Z,21.60
2022-11-21T14:17:30.100Z,29.65
2022-11-21T14:20:00.645Z,23.17
2022-11-21T14:22:35.677Z,30.45
2022-11-21T14:25:09.475Z,19.65
2022-11-21T14:27:45.072Z,21.90
2022-11-21T14:30:29.693Z,20.73
2022-11-21T14:33:22.014Z,22.38
2022-11-21T14:35:50.677Z,18.27
2022-11-21T14:38:20.495Z,24.30
2022-11-21T14:40:48.528Z,24.92
2022-11-21T14:43:40.699Z,22.77
2022-11-21T14:46:15.613Z,23.48
2022-11-21T14:48:44.992Z,20.25
2022-11-21T14:51:17.418Z,22.33
2022-11-21T14:53:47.244Z,21.38
2022-11-21T14:56:23.262Z,23.48
2022-11-21T14:58:52.718Z,46.35
2022-11-21T15:01:22.794Z,26.65
2022-11-21T15:03:59.485Z,22.50
2022-11-21T15:06:27.538Z,21.95
2022-11-21T15:10:05.716Z,24.55
2022-11-21T15:11:52.369Z,18.50
2022-11-21T15:14:25.979Z,22.25
2022-11-21T15:16:55.965Z,21.92
2022-11-21T15:19:27.575Z,21.90
2022-11-21T15:21:58.281Z,25.45
2022-11-21T15:24:37.677Z,23.90
2022-11-21T15:27:33.550Z,18.77
2022-11-21T15:30:17.572Z,20.92
2022-11-21T15:33:01.031Z,19.60
2022-11-21T15:35:40.360Z,25.07
2022-11-21T15:38:20.220Z,30.02
2022-11-21T15:40:59.119Z,28.02
2022-11-21T15:43:42.455Z,29.42
2022-11-21T15:46:17.358Z,30.63
2022-11-21T15:48:47.159Z,34.42
2022-11-21T15:51:20.381Z,38.20
2022-11-21T15:53:52.318Z,41.42
2022-11-21T15:56:23.092Z,34.53
2022-11-21T15:58:51.345Z,48.75
2022-11-21T16:01:20.958Z,26.35
2022-11-21T16:03:50.836Z,30.65
2022-11-21T16:06:20.720Z,23.80
2022-11-21T16:08:48.991Z,24.17
2022-11-21T16:11:21.868Z,28.80
2022-11-21T16:13:50.917Z,17.40
2022-11-21T16:16:19.065Z,26.10
2022-11-21T16:18:47.502Z,21.63
2022-11-21T16:21:15.884Z,24.73
2022-11-21T16:23:45.420Z,20.23
2022-11-21T16:26:13.724Z,22.17
2022-11-21T16:28:43.480Z,21.00
2022-11-21T16:31:20.069Z,21.92
2022-11-21T16:33:48.069Z,19.25
2022-11-21T16:36:21.201Z,25.13
2022-11-21T16:38:51.128Z,26.53
2022-11-21T16:41:19.991Z,20.00
2022-11-21T16:43:49.774Z,20.38
2022-11-21T16:46:18.626Z,25.20
2022-11-21T16:48:46.574Z,16.42
2022-11-21T16:51:16.896Z,21.90
2022-11-21T16:53:45.812Z,22.60
2022-11-21T16:56:15.786Z,23.35
2022-11-21T16:58:44.172Z,30.10
2022-11-21T17:01:13.814Z,22.52
2022-11-21T17:03:43.456Z,29.20
2022-11-21T17:06:12.708Z,23.45
2022-11-21T17:08:40.951Z,20.67
2022-11-21T17:11:18.933Z,18.90
2022-11-21T17:13:48.229Z,17.67
2022-11-21T17:16:18.173Z,17.58
2022-11-21T17:18:46.725Z,23.30
2022-11-21T17:21:16.281Z,16.55
2022-11-21T17:23:48.189Z,25.05
2022-11-21T17:26:19.052Z,23.52
2022-11-21T17:28:52.485Z,17.30
2022-11-21T17:31:21.246Z,28.70
2022-11-21T17:33:51.916Z,20.33
2022-11-21T17:36:21.574Z,18.75
2022-11-21T17:38:50.244Z,30.90
2022-11-21T17:41:23.728Z,23.05
2022-11-21T17:43:55.644Z,23.67
2022-11-21T17:46:25.490Z,27.25
2022-11-21T17:48:57.708Z,22.35
2022-11-21T17:51:28.902Z,19.00
2022-11-21T17:53:57.383Z,29.98
2022-11-21T17:56:27.998Z,23.85
2022-11-21T17:58:56.594Z,21.40
2022-11-21T18:01:24.669Z,17.40
2022-11-21T18:03:56.549Z,16.70
2022-11-21T18:06:25.379Z,18.17
2022-11-21T18:08:53.315Z,18.83
2022-11-21T18:11:22.840Z,22.98
2022-11-21T18:13:52.095Z,14.45
2022-11-21T18:16:22.054Z,13.30
2022-11-21T18:18:50.890Z,17.05
2022-11-21T18:21:20.266Z,13.48
2022-11-21T18:23:48.313Z,18.10
2022-11-21T18:26:20.521Z,16.40
2022-11-21T18:28:57.304Z,18.63
2022-11-21T18:31:38.717Z,18.13
2022-11-21T18:34:07.439Z,21.08
2022-11-21T18:36:36.140Z,14.43
2022-11-21T18:39:12.057Z,18.80
2022-11-21T18:41:41.860Z,20.20
2022-11-21T18:44:09.950Z,18.20
2022-11-21T18:46:39.443Z,25.40
2022-11-21T18:49:08.437Z,24.92
2022-11-21T18:51:37.521Z,14.18
2022-11-21T18:54:08.133Z,23.30
2022-11-21T18:56:37.601Z,18.58
2022-11-21T18:59:06.845Z,20.80
2022-11-21T19:01:36.381Z,16.40
2022-11-21T19:04:06.130Z,24.73
2022-11-21T19:06:33.996Z,20.27
2022-11-21T19:09:01.872Z,21.15
2022-11-21T19:11:31.138Z,15.68
2022-11-21T19:14:00.471Z,19.05
2022-11-21T19:16:31.165Z,15.77
2022-11-21T19:19:32.562Z,18.80
2022-11-21T19:21:48.825Z,24.10
2022-11-21T19:24:16.788Z,22.75
2022-11-21T19:26:44.849Z,18.60
2022-11-21T19:29:12.861Z,17.00
2022-11-21T19:31:45.124Z,16.10
2022-11-21T19:34:13.914Z,15.32
2022-11-21T19:36:42.139Z,12.68
2022-11-21T19:39:11.922Z,13.35
2022-11-21T19:41:40.192Z,17.15
2022-11-21T19:44:08.125Z,21.42
2022-11-21T19:46:37.868Z,22.00
2022-11-21T19:49:07.490Z,14.93
2022-11-21T19:51:37.928Z,16.15
2022-11-21T19:54:07.217Z,14.82
2022-11-21T19:56:36.944Z,13.00
2022-11-21T19:59:05.103Z,13.27
2022-11-21T20:01:35.327Z,16.80
2022-11-21T20:04:05.061Z,9.55
2022-11-21T20:06:34.928Z,13.90
2022-11-21T20:09:05.892Z,14.32
2022-11-21T20:11:34.896Z,16.63
2022-11-21T20:14:04.207Z,12.55
2022-11-21T20:16:34.549Z,17.73
2022-11-21T20:19:04.282Z,12.40
2022-11-21T20:21:32.694Z,18.65
2022-11-21T20:24:00.967Z,11.98
2022-11-21T20:26:29.543Z,10.85
2022-11-21T20:28:57.874Z,10.35
2022-11-21T20:31:29.004Z,9.73
2022-11-21T20:34:00.598Z,14.88
2022-11-21T20:36:30.177Z,17.30
2022-11-21T20:38:59.739Z,11.20
2022-11-21T20:41:29.127Z,10.27
2022-11-21T20:46:47.829Z,11.63
2022-11-21T20:49:15.712Z,15.60
2022-11-21T20:53:31.306Z,10.27
2022-11-21T20:54:32.572Z,11.55
2022-11-21T20:57:00.619Z,9.80
2022-11-21T20:59:28.713Z,14.20
2022-11-21T21:01:58.487Z,11.38
2022-11-21T21:04:26.409Z,14.88
2022-11-21T21:06:54.313Z,14.95
2022-11-21T21:09:22.224Z,13.25
2022-11-21T21:11:52.954Z,13.77
2022-11-21T21:14:21.804Z,12.63
2022-11-21T21:16:50.199Z,13.70
2022-11-21T21:19:20.450Z,17.20
2022-11-21T21:21:48.343Z,16.55
2022-11-21T21:24:17.202Z,18.23
2022-11-21T21:26:46.952Z,24.40
2022-11-21T21:29:16.971Z,18.42
2022-11-21T21:31:50.588Z,10.05
2022-11-21T21:34:21.474Z,11.30
2022-11-21T21:36:49.558Z,11.65
2022-11-21T21:39:17.579Z,10.73
2022-11-21T21:41:46.790Z,16.27
2022-11-21T21:44:15.538Z,15.63
2022-11-21T21:46:43.644Z,10.93
2022-11-21T21:49:12.195Z,11.48
2022-11-21T21:51:41.695Z,11.02
2022-11-21T21:54:17.644Z,13.18
2022-11-21T21:56:46.976Z,18.95
2022-11-21T21:59:15.731Z,13.20
2022-11-21T22:01:43.879Z,15.70
2022-11-21T22:04:13.394Z,12.85
2022-11-21T22:06:42.619Z,9.50
2022-11-21T22:09:10.761Z,10.82
2022-11-21T22:11:39.496Z,15.32
2022-11-21T22:14:10.847Z,16.05
2022-11-21T22:16:39.117Z,17.88
2022-11-21T22:19:07.057Z,10.25
2022-11-21T22:21:36.482Z,12.77
2022-11-21T22:24:27.464Z,15.45
2022-11-21T22:26:55.758Z,13.02
2022-11-21T22:29:23.884Z,11.73
2022-11-21T22:31:51.915Z,12.23
2022-11-21T22:34:19.808Z,14.00
2022-11-21T22:36:47.810Z,14.63
2022-11-21T22:39:17.926Z,16.25
2022-11-21T22:41:45.844Z,14.95
2022-11-21T22:44:13.744Z,14.07
2022-11-21T22:46:41.873Z,12.65
2022-11-21T22:49:09.727Z,10.30
2022-11-21T22:51:37.652Z,12.27
2022-11-21T22:54:05.720Z,8.55
2022-11-21T22:56:35.001Z,10.50
2022-11-21T22:59:03.021Z,15.18
2022-11-21T23:01:33.178Z,16.67
2022-11-21T23:04:01.445Z,11.18
2022-11-21T23:06:29.431Z,10.75
2022-11-21T23:08:58.197Z,13.30
2022-11-21T23:11:27.795Z,10.50
2022-11-21T23:13:58.285Z,15.00
2022-11-21T23:16:26.850Z,10.93
2022-11-21T23:18:56.632Z,13.85
2022-11-21T23:21:24.685Z,15.23
2022-11-21T23:23:52.603Z,10.93
2022-11-21T23:26:21.420Z,12.30
2022-11-21T23:28:49.295Z,8.25
2022-11-21T23:31:18.509Z,15.48
2022-11-21T23:33:46.498Z,15.52
2022-11-21T23:36:14.393Z,15.40
2022-11-21T23:38:42.349Z,11.90
2022-11-21T23:41:10.800Z,13.13
2022-11-21T23:43:38.677Z,7.93
2022-11-21T23:46:06.542Z,13.55
2022-11-21T23:48:35.976Z,23.70
2022-11-21T23:51:03.862Z,16.10
2022-11-21T23:53:31.812Z,13.95
2022-11-21T23:55:59.777Z,10.07
2022-11-21T23:58:27.745Z,13.95
